KSPS/SPS METAR and TAF weather

Enter ICAO airport designator
Station Type Date Time Source
KSPS METAR 2019/10/18 10:52 UTC NOAA

KSPS 181052Z 12004KT 10SM CLR 07/06 A2984 RMK AO2 SLP098 T00720061 $


Station Type Date Time Source
KSPS Decoded METAR 2019/10/18 10:52 UTC NOAA

WICHITA FALLS SHEPPARD AFB, TX, United States (KSPS) 33-59N 98-30W 308M
Oct 18, 2019 - 06:52 AM EDT / 2019.10.18 1052 UTC
Wind: from the ESE (120 degrees) at 5 MPH (4 KT):0
Visibility: 10 mile(s):0
Sky conditions: clear
Temperature: 45.0 F (7.2 C)
Dew Point: 43.0 F (6.1 C)
Relative Humidity: 92%
Pressure (altimeter): 29.84 in. Hg (1010 hPa)
ob: KSPS 181052Z 12004KT 10SM CLR 07/06 A2984 RMK AO2 SLP098 T00720061
cycle: 11

Station Type Date Time Source
KSPS TAF 2019/10/18 06:22 UTC NOAA

TAF KSPS 180520Z 1806/1906 16010KT P6SM SKC
FM181800 17015G23KT P6SM FEW250
FM190000 15015KT P6SM SCT100 SCT250

Example: see airport list